sensor_id;sensor_type;location;lat;lon;timestamp;P1;durP1;ratioP1;P2;durP2;ratioP2
12165;SDS011;6146;48.128;11.476;2023-04-26T00:00:41;10.30;;;7.87;;
12165;SDS011;6146;48.128;11.476;2023-04-26T00:03:07;10.20;;;7.53;;
12165;SDS011;6146;48.128;11.476;2023-04-26T00:05:33;11.33;;;8.27;;
12165;SDS011;6146;48.128;11.476;2023-04-26T00:07:59;9.43;;;8.10;;
12165;SDS011;6146;48.128;11.476;2023-04-26T00:10:25;10.77;;;8.43;;
12165;SDS011;6146;48.128;11.476;2023-04-26T00:12:51;9.80;;;8.47;;
12165;SDS011;6146;48.128;11.476;2023-04-26T00:15:16;10.90;;;8.63;;
12165;SDS011;6146;48.128;11.476;2023-04-26T00:17:42;9.70;;;8.70;;
12165;SDS011;6146;48.128;11.476;2023-04-26T00:20:08;11.73;;;8.93;;
12165;SDS011;6146;48.128;11.476;2023-04-26T00:22:35;12.13;;;8.40;;
12165;SDS011;6146;48.128;11.476;2023-04-26T00:25:01;13.63;;;8.53;;
12165;SDS011;6146;48.128;11.476;2023-04-26T00:27:27;9.97;;;8.40;;
12165;SDS011;6146;48.128;11.476;2023-04-26T00:29:52;10.77;;;8.60;;
12165;SDS011;6146;48.128;11.476;2023-04-26T00:32:18;10.53;;;8.57;;
12165;SDS011;6146;48.128;11.476;2023-04-26T00:34:43;9.57;;;8.50;;
12165;SDS011;6146;48.128;11.476;2023-04-26T00:37:09;11.53;;;8.50;;
12165;SDS011;6146;48.128;11.476;2023-04-26T00:39:35;9.67;;;7.77;;
12165;SDS011;6146;48.128;11.476;2023-04-26T00:42:00;10.47;;;8.50;;
12165;SDS011;6146;48.128;11.476;2023-04-26T00:44:26;10.00;;;8.20;;
12165;SDS011;6146;48.128;11.476;2023-04-26T00:46:52;11.27;;;8.90;;
12165;SDS011;6146;48.128;11.476;2023-04-26T00:49:18;11.23;;;7.87;;
12165;SDS011;6146;48.128;11.476;2023-04-26T00:51:48;10.50;;;7.77;;
12165;SDS011;6146;48.128;11.476;2023-04-26T00:54:15;8.13;;;6.67;;
12165;SDS011;6146;48.128;11.476;2023-04-26T00:56:41;8.53;;;6.30;;
12165;SDS011;6146;48.128;11.476;2023-04-26T00:59:07;7.30;;;6.50;;
12165;SDS011;6146;48.128;11.476;2023-04-26T01:01:33;7.80;;;5.80;;
12165;SDS011;6146;48.128;11.476;2023-04-26T01:03:59;7.97;;;6.47;;
12165;SDS011;6146;48.128;11.476;2023-04-26T01:06:27;6.87;;;6.17;;
12165;SDS011;6146;48.128;11.476;2023-04-26T01:08:57;8.50;;;6.40;;
12165;SDS011;6146;48.128;11.476;2023-04-26T01:11:29;8.53;;;7.20;;
12165;SDS011;6146;48.128;11.476;2023-04-26T01:13:55;8.43;;;6.27;;
12165;SDS011;6146;48.128;11.476;2023-04-26T01:16:21;9.53;;;7.07;;
12165;SDS011;6146;48.128;11.476;2023-04-26T01:18:51;9.80;;;7.17;;
12165;SDS011;6146;48.128;11.476;2023-04-26T01:21:20;9.97;;;7.70;;
12165;SDS011;6146;48.128;11.476;2023-04-26T01:23:47;10.17;;;8.13;;
12165;SDS011;6146;48.128;11.476;2023-04-26T01:26:13;10.67;;;8.17;;
12165;SDS011;6146;48.128;11.476;2023-04-26T01:28:39;9.93;;;7.23;;
12165;SDS011;6146;48.128;11.476;2023-04-26T01:31:05;9.37;;;7.93;;
12165;SDS011;6146;48.128;11.476;2023-04-26T01:33:31;9.13;;;6.97;;
12165;SDS011;6146;48.128;11.476;2023-04-26T01:35:56;11.77;;;7.63;;
12165;SDS011;6146;48.128;11.476;2023-04-26T01:38:22;9.13;;;6.80;;
12165;SDS011;6146;48.128;11.476;2023-04-26T01:40:47;9.67;;;7.40;;
12165;SDS011;6146;48.128;11.476;2023-04-26T01:43:13;8.17;;;6.83;;
12165;SDS011;6146;48.128;11.476;2023-04-26T01:45:39;9.50;;;7.50;;
12165;SDS011;6146;48.128;11.476;2023-04-26T01:48:05;8.87;;;6.73;;
12165;SDS011;6146;48.128;11.476;2023-04-26T01:50:31;8.53;;;6.47;;
12165;SDS011;6146;48.128;11.476;2023-04-26T01:52:57;7.97;;;6.57;;
12165;SDS011;6146;48.128;11.476;2023-04-26T01:55:22;8.40;;;6.30;;
12165;SDS011;6146;48.128;11.476;2023-04-26T01:57:48;8.77;;;7.07;;
12165;SDS011;6146;48.128;11.476;2023-04-26T02:00:13;8.40;;;6.03;;
12165;SDS011;6146;48.128;11.476;2023-04-26T02:02:39;7.93;;;6.80;;
12165;SDS011;6146;48.128;11.476;2023-04-26T02:05:05;8.70;;;5.83;;
12165;SDS011;6146;48.128;11.476;2023-04-26T02:07:33;8.63;;;6.40;;
12165;SDS011;6146;48.128;11.476;2023-04-26T02:09:58;8.43;;;6.77;;
12165;SDS011;6146;48.128;11.476;2023-04-26T02:12:24;7.13;;;5.97;;
12165;SDS011;6146;48.128;11.476;2023-04-26T02:14:49;8.30;;;6.97;;
12165;SDS011;6146;48.128;11.476;2023-04-26T02:17:15;7.90;;;5.83;;
12165;SDS011;6146;48.128;11.476;2023-04-26T02:19:41;8.53;;;5.73;;
12165;SDS011;6146;48.128;11.476;2023-04-26T02:22:06;7.47;;;5.70;;
12165;SDS011;6146;48.128;11.476;2023-04-26T02:24:32;7.03;;;5.43;;
12165;SDS011;6146;48.128;11.476;2023-04-26T02:26:57;7.93;;;6.00;;
12165;SDS011;6146;48.128;11.476;2023-04-26T02:29:27;6.20;;;5.53;;
12165;SDS011;6146;48.128;11.476;2023-04-26T02:31:53;6.80;;;5.60;;
12165;SDS011;6146;48.128;11.476;2023-04-26T02:34:19;9.00;;;6.37;;
12165;SDS011;6146;48.128;11.476;2023-04-26T02:36:44;6.47;;;5.43;;
12165;SDS011;6146;48.128;11.476;2023-04-26T02:39:10;7.40;;;5.83;;
12165;SDS011;6146;48.128;11.476;2023-04-26T02:41:36;7.60;;;5.80;;
12165;SDS011;6146;48.128;11.476;2023-04-26T02:44:01;7.73;;;5.90;;
12165;SDS011;6146;48.128;11.476;2023-04-26T02:46:27;7.57;;;5.73;;
12165;SDS011;6146;48.128;11.476;2023-04-26T02:48:52;8.60;;;5.93;;
12165;SDS011;6146;48.128;11.476;2023-04-26T02:51:18;7.03;;;5.80;;
12165;SDS011;6146;48.128;11.476;2023-04-26T02:53:43;9.93;;;6.27;;
12165;SDS011;6146;48.128;11.476;2023-04-26T02:56:09;8.47;;;6.47;;
12165;SDS011;6146;48.128;11.476;2023-04-26T02:58:35;8.70;;;6.27;;
12165;SDS011;6146;48.128;11.476;2023-04-26T03:01:01;8.63;;;6.67;;
12165;SDS011;6146;48.128;11.476;2023-04-26T03:03:28;8.47;;;5.90;;
12165;SDS011;6146;48.128;11.476;2023-04-26T03:05:54;7.07;;;5.73;;
12165;SDS011;6146;48.128;11.476;2023-04-26T03:08:20;7.57;;;6.67;;
12165;SDS011;6146;48.128;11.476;2023-04-26T03:10:46;8.00;;;6.33;;
12165;SDS011;6146;48.128;11.476;2023-04-26T03:13:11;9.07;;;6.93;;
12165;SDS011;6146;48.128;11.476;2023-04-26T03:15:37;7.27;;;6.37;;
12165;SDS011;6146;48.128;11.476;2023-04-26T03:18:02;7.43;;;5.90;;
12165;SDS011;6146;48.128;11.476;2023-04-26T03:20:28;8.33;;;6.17;;
12165;SDS011;6146;48.128;11.476;2023-04-26T03:22:53;8.73;;;6.07;;
12165;SDS011;6146;48.128;11.476;2023-04-26T03:25:19;6.73;;;5.80;;
12165;SDS011;6146;48.128;11.476;2023-04-26T03:27:45;8.70;;;6.97;;
12165;SDS011;6146;48.128;11.476;2023-04-26T03:30:11;6.87;;;5.77;;
12165;SDS011;6146;48.128;11.476;2023-04-26T03:32:37;6.60;;;5.73;;
12165;SDS011;6146;48.128;11.476;2023-04-26T03:35:02;6.23;;;5.60;;
12165;SDS011;6146;48.128;11.476;2023-04-26T03:37:28;7.67;;;6.37;;
12165;SDS011;6146;48.128;11.476;2023-04-26T03:39:54;9.23;;;6.30;;
12165;SDS011;6146;48.128;11.476;2023-04-26T03:42:20;7.80;;;6.40;;
12165;SDS011;6146;48.128;11.476;2023-04-26T03:44:45;8.60;;;6.57;;
12165;SDS011;6146;48.128;11.476;2023-04-26T03:47:11;9.67;;;6.40;;
12165;SDS011;6146;48.128;11.476;2023-04-26T03:49:39;6.80;;;6.10;;
12165;SDS011;6146;48.128;11.476;2023-04-26T03:52:04;7.07;;;5.90;;
12165;SDS011;6146;48.128;11.476;2023-04-26T03:54:30;7.27;;;6.30;;
12165;SDS011;6146;48.128;11.476;2023-04-26T03:56:55;7.60;;;6.10;;
12165;SDS011;6146;48.128;11.476;2023-04-26T03:59:21;7.60;;;6.40;;
12165;SDS011;6146;48.128;11.476;2023-04-26T04:01:47;10.93;;;6.53;;
12165;SDS011;6146;48.128;11.476;2023-04-26T04:04:12;8.53;;;7.30;;
12165;SDS011;6146;48.128;11.476;2023-04-26T04:06:38;8.13;;;6.77;;
12165;SDS011;6146;48.128;11.476;2023-04-26T04:09:03;8.23;;;7.07;;
12165;SDS011;6146;48.128;11.476;2023-04-26T04:11:32;10.10;;;7.27;;
12165;SDS011;6146;48.128;11.476;2023-04-26T04:13:58;9.30;;;7.13;;
12165;SDS011;6146;48.128;11.476;2023-04-26T04:16:24;9.33;;;7.23;;
12165;SDS011;6146;48.128;11.476;2023-04-26T04:18:49;8.33;;;7.10;;
12165;SDS011;6146;48.128;11.476;2023-04-26T04:21:15;11.37;;;7.57;;
12165;SDS011;6146;48.128;11.476;2023-04-26T04:23:41;9.47;;;7.27;;
12165;SDS011;6146;48.128;11.476;2023-04-26T04:26:08;11.17;;;7.93;;
12165;SDS011;6146;48.128;11.476;2023-04-26T04:28:33;12.40;;;8.33;;
12165;SDS011;6146;48.128;11.476;2023-04-26T04:30:59;9.33;;;7.30;;
12165;SDS011;6146;48.128;11.476;2023-04-26T04:33:25;8.73;;;7.27;;
12165;SDS011;6146;48.128;11.476;2023-04-26T04:35:52;10.37;;;7.20;;
12165;SDS011;6146;48.128;11.476;2023-04-26T04:38:18;9.33;;;7.63;;
12165;SDS011;6146;48.128;11.476;2023-04-26T04:40:46;10.77;;;7.33;;
12165;SDS011;6146;48.128;11.476;2023-04-26T04:43:13;8.93;;;6.53;;
12165;SDS011;6146;48.128;11.476;2023-04-26T04:45:39;14.17;;;7.63;;
12165;SDS011;6146;48.128;11.476;2023-04-26T04:48:05;8.03;;;6.83;;
12165;SDS011;6146;48.128;11.476;2023-04-26T04:50:30;9.80;;;7.67;;
12165;SDS011;6146;48.128;11.476;2023-04-26T04:52:56;10.50;;;6.80;;
12165;SDS011;6146;48.128;11.476;2023-04-26T04:55:22;9.30;;;7.97;;
12165;SDS011;6146;48.128;11.476;2023-04-26T04:57:47;10.37;;;7.80;;
12165;SDS011;6146;48.128;11.476;2023-04-26T05:00:13;9.60;;;7.80;;
12165;SDS011;6146;48.128;11.476;2023-04-26T05:02:39;10.03;;;7.17;;
12165;SDS011;6146;48.128;11.476;2023-04-26T05:05:05;10.67;;;7.83;;
12165;SDS011;6146;48.128;11.476;2023-04-26T05:07:31;10.67;;;7.00;;
12165;SDS011;6146;48.128;11.476;2023-04-26T05:09:57;8.40;;;6.53;;
12165;SDS011;6146;48.128;11.476;2023-04-26T05:12:23;10.40;;;7.93;;
12165;SDS011;6146;48.128;11.476;2023-04-26T05:14:48;9.10;;;7.30;;
12165;SDS011;6146;48.128;11.476;2023-04-26T05:17:14;10.00;;;6.90;;
12165;SDS011;6146;48.128;11.476;2023-04-26T05:19:40;9.60;;;6.73;;
12165;SDS011;6146;48.128;11.476;2023-04-26T05:22:05;10.50;;;6.87;;
12165;SDS011;6146;48.128;11.476;2023-04-26T05:24:31;9.53;;;7.53;;
12165;SDS011;6146;48.128;11.476;2023-04-26T05:26:57;10.17;;;7.83;;
12165;SDS011;6146;48.128;11.476;2023-04-26T05:29:23;11.80;;;10.30;;
12165;SDS011;6146;48.128;11.476;2023-04-26T05:31:53;9.53;;;7.13;;
12165;SDS011;6146;48.128;11.476;2023-04-26T05:34:18;9.27;;;7.30;;
12165;SDS011;6146;48.128;11.476;2023-04-26T05:36:44;8.17;;;7.27;;
12165;SDS011;6146;48.128;11.476;2023-04-26T05:39:09;8.03;;;7.23;;
12165;SDS011;6146;48.128;11.476;2023-04-26T05:41:36;8.47;;;6.97;;
12165;SDS011;6146;48.128;11.476;2023-04-26T05:44:02;7.93;;;6.40;;
12165;SDS011;6146;48.128;11.476;2023-04-26T05:46:27;10.50;;;7.27;;
12165;SDS011;6146;48.128;11.476;2023-04-26T05:48:53;10.43;;;6.87;;
12165;SDS011;6146;48.128;11.476;2023-04-26T05:51:19;11.33;;;8.03;;
12165;SDS011;6146;48.128;11.476;2023-04-26T05:53:45;9.17;;;6.93;;
12165;SDS011;6146;48.128;11.476;2023-04-26T05:56:10;8.73;;;7.07;;
12165;SDS011;6146;48.128;11.476;2023-04-26T05:58:36;10.13;;;7.33;;
12165;SDS011;6146;48.128;11.476;2023-04-26T06:01:01;8.37;;;7.00;;
12165;SDS011;6146;48.128;11.476;2023-04-26T06:03:27;9.50;;;7.17;;
12165;SDS011;6146;48.128;11.476;2023-04-26T06:05:53;8.07;;;7.07;;
12165;SDS011;6146;48.128;11.476;2023-04-26T06:08:18;9.77;;;7.77;;
12165;SDS011;6146;48.128;11.476;2023-04-26T06:10:44;10.23;;;7.43;;
12165;SDS011;6146;48.128;11.476;2023-04-26T06:13:10;12.70;;;7.43;;
12165;SDS011;6146;48.128;11.476;2023-04-26T06:15:36;10.00;;;7.50;;
12165;SDS011;6146;48.128;11.476;2023-04-26T06:18:03;9.03;;;6.97;;
12165;SDS011;6146;48.128;11.476;2023-04-26T06:20:29;9.13;;;7.80;;
12165;SDS011;6146;48.128;11.476;2023-04-26T06:22:55;9.90;;;6.83;;
12165;SDS011;6146;48.128;11.476;2023-04-26T06:25:20;9.43;;;6.93;;
12165;SDS011;6146;48.128;11.476;2023-04-26T06:27:46;7.80;;;7.00;;
12165;SDS011;6146;48.128;11.476;2023-04-26T06:30:12;11.07;;;8.07;;
12165;SDS011;6146;48.128;11.476;2023-04-26T06:32:39;9.07;;;6.63;;
12165;SDS011;6146;48.128;11.476;2023-04-26T06:35:05;9.07;;;5.67;;
12165;SDS011;6146;48.128;11.476;2023-04-26T06:37:31;8.00;;;5.13;;
12165;SDS011;6146;48.128;11.476;2023-04-26T06:39:57;6.53;;;4.93;;
12165;SDS011;6146;48.128;11.476;2023-04-26T06:42:22;5.13;;;4.37;;
12165;SDS011;6146;48.128;11.476;2023-04-26T06:44:48;5.20;;;4.70;;
12165;SDS011;6146;48.128;11.476;2023-04-26T06:47:13;5.40;;;4.77;;
12165;SDS011;6146;48.128;11.476;2023-04-26T06:49:39;4.73;;;4.13;;
12165;SDS011;6146;48.128;11.476;2023-04-26T06:52:05;5.67;;;3.93;;
12165;SDS011;6146;48.128;11.476;2023-04-26T06:54:31;6.53;;;3.70;;
12165;SDS011;6146;48.128;11.476;2023-04-26T06:56:56;5.13;;;4.20;;
12165;SDS011;6146;48.128;11.476;2023-04-26T06:59:22;4.13;;;3.50;;
12165;SDS011;6146;48.128;11.476;2023-04-26T07:01:48;5.03;;;3.93;;
12165;SDS011;6146;48.128;11.476;2023-04-26T07:04:14;4.57;;;3.83;;
12165;SDS011;6146;48.128;11.476;2023-04-26T07:06:41;4.83;;;4.30;;
12165;SDS011;6146;48.128;11.476;2023-04-26T07:09:06;5.83;;;4.50;;
12165;SDS011;6146;48.128;11.476;2023-04-26T07:11:32;6.30;;;4.47;;
12165;SDS011;6146;48.128;11.476;2023-04-26T07:13:58;5.60;;;4.87;;
12165;SDS011;6146;48.128;11.476;2023-04-26T07:16:24;7.30;;;5.03;;
12165;SDS011;6146;48.128;11.476;2023-04-26T07:18:50;7.03;;;4.60;;
12165;SDS011;6146;48.128;11.476;2023-04-26T07:21:16;7.63;;;4.80;;
12165;SDS011;6146;48.128;11.476;2023-04-26T07:23:42;6.53;;;4.67;;
12165;SDS011;6146;48.128;11.476;2023-04-26T07:26:11;7.67;;;5.73;;
12165;SDS011;6146;48.128;11.476;2023-04-26T07:28:36;7.10;;;5.40;;
12165;SDS011;6146;48.128;11.476;2023-04-26T07:31:02;7.67;;;5.57;;
12165;SDS011;6146;48.128;11.476;2023-04-26T07:33:28;6.23;;;5.40;;
12165;SDS011;6146;48.128;11.476;2023-04-26T07:35:55;10.50;;;5.50;;
12165;SDS011;6146;48.128;11.476;2023-04-26T07:38:23;7.63;;;5.40;;
12165;SDS011;6146;48.128;11.476;2023-04-26T07:40:49;8.77;;;5.70;;
12165;SDS011;6146;48.128;11.476;2023-04-26T07:43:15;5.83;;;4.97;;
12165;SDS011;6146;48.128;11.476;2023-04-26T07:45:41;6.90;;;4.70;;
12165;SDS011;6146;48.128;11.476;2023-04-26T07:48:07;7.67;;;5.07;;
12165;SDS011;6146;48.128;11.476;2023-04-26T07:50:33;6.07;;;4.77;;
12165;SDS011;6146;48.128;11.476;2023-04-26T07:52:58;6.47;;;5.67;;
12165;SDS011;6146;48.128;11.476;2023-04-26T07:55:24;7.47;;;5.60;;
12165;SDS011;6146;48.128;11.476;2023-04-26T07:57:50;6.30;;;5.13;;
12165;SDS011;6146;48.128;11.476;2023-04-26T08:00:16;7.73;;;5.60;;
12165;SDS011;6146;48.128;11.476;2023-04-26T08:02:42;6.57;;;5.57;;
12165;SDS011;6146;48.128;11.476;2023-04-26T08:05:10;5.47;;;4.67;;
12165;SDS011;6146;48.128;11.476;2023-04-26T08:07:35;5.43;;;4.70;;
12165;SDS011;6146;48.128;11.476;2023-04-26T08:10:01;8.10;;;4.77;;
12165;SDS011;6146;48.128;11.476;2023-04-26T08:12:27;7.00;;;5.17;;
12165;SDS011;6146;48.128;11.476;2023-04-26T08:14:53;7.23;;;5.43;;
12165;SDS011;6146;48.128;11.476;2023-04-26T08:17:18;6.40;;;4.77;;
12165;SDS011;6146;48.128;11.476;2023-04-26T08:19:44;7.53;;;5.07;;
12165;SDS011;6146;48.128;11.476;2023-04-26T08:22:09;7.07;;;4.87;;
12165;SDS011;6146;48.128;11.476;2023-04-26T08:24:35;6.30;;;4.93;;
12165;SDS011;6146;48.128;11.476;2023-04-26T08:27:00;5.03;;;4.43;;
12165;SDS011;6146;48.128;11.476;2023-04-26T08:29:26;4.77;;;4.10;;
12165;SDS011;6146;48.128;11.476;2023-04-26T08:31:52;6.43;;;4.77;;
12165;SDS011;6146;48.128;11.476;2023-04-26T08:34:18;6.00;;;4.90;;
12165;SDS011;6146;48.128;11.476;2023-04-26T08:36:43;6.37;;;4.40;;
12165;SDS011;6146;48.128;11.476;2023-04-26T08:39:09;6.67;;;4.30;;
12165;SDS011;6146;48.128;11.476;2023-04-26T08:41:37;4.97;;;3.73;;
12165;SDS011;6146;48.128;11.476;2023-04-26T08:44:09;4.83;;;3.33;;
12165;SDS011;6146;48.128;11.476;2023-04-26T08:46:35;6.17;;;3.63;;
12165;SDS011;6146;48.128;11.476;2023-04-26T08:49:12;4.00;;;3.57;;
12165;SDS011;6146;48.128;11.476;2023-04-26T08:51:50;6.17;;;3.63;;
12165;SDS011;6146;48.128;11.476;2023-04-26T08:54:17;4.97;;;3.63;;
12165;SDS011;6146;48.128;11.476;2023-04-26T08:56:44;4.40;;;3.40;;
12165;SDS011;6146;48.128;11.476;2023-04-26T08:59:11;4.03;;;3.50;;
12165;SDS011;6146;48.128;11.476;2023-04-26T09:01:40;3.97;;;3.33;;
12165;SDS011;6146;48.128;11.476;2023-04-26T09:04:07;5.17;;;3.30;;
12165;SDS011;6146;48.128;11.476;2023-04-26T09:06:33;4.63;;;3.20;;
12165;SDS011;6146;48.128;11.476;2023-04-26T09:09:00;5.57;;;3.70;;
12165;SDS011;6146;48.128;11.476;2023-04-26T09:11:28;6.10;;;3.30;;
12165;SDS011;6146;48.128;11.476;2023-04-26T09:13:55;5.17;;;3.80;;
12165;SDS011;6146;48.128;11.476;2023-04-26T09:16:33;4.60;;;3.67;;
12165;SDS011;6146;48.128;11.476;2023-04-26T09:19:00;4.33;;;3.37;;
12165;SDS011;6146;48.128;11.476;2023-04-26T09:21:26;5.70;;;3.60;;
12165;SDS011;6146;48.128;11.476;2023-04-26T09:23:59;6.60;;;4.00;;
12165;SDS011;6146;48.128;11.476;2023-04-26T09:26:28;5.93;;;3.93;;
12165;SDS011;6146;48.128;11.476;2023-04-26T09:29:13;5.50;;;3.93;;
12165;SDS011;6146;48.128;11.476;2023-04-26T09:31:42;4.47;;;3.43;;
12165;SDS011;6146;48.128;11.476;2023-04-26T09:34:09;7.20;;;4.40;;
12165;SDS011;6146;48.128;11.476;2023-04-26T09:36:45;4.77;;;4.13;;
12165;SDS011;6146;48.128;11.476;2023-04-26T09:39:26;5.63;;;4.60;;
12165;SDS011;6146;48.128;11.476;2023-04-26T09:41:58;7.13;;;5.70;;
12165;SDS011;6146;48.128;11.476;2023-04-26T09:44:24;6.57;;;4.57;;
12165;SDS011;6146;48.128;11.476;2023-04-26T09:46:56;5.73;;;3.90;;
12165;SDS011;6146;48.128;11.476;2023-04-26T09:49:32;4.30;;;3.80;;
12165;SDS011;6146;48.128;11.476;2023-04-26T09:52:08;10.37;;;5.80;;
12165;SDS011;6146;48.128;11.476;2023-04-26T09:54:42;7.53;;;4.73;;
12165;SDS011;6146;48.128;11.476;2023-04-26T09:57:16;5.20;;;4.70;;
12165;SDS011;6146;48.128;11.476;2023-04-26T09:59:47;5.83;;;4.50;;
12165;SDS011;6146;48.128;11.476;2023-04-26T10:04:44;8.57;;;4.37;;
12165;SDS011;6146;48.128;11.476;2023-04-26T10:07:12;4.13;;;3.70;;
12165;SDS011;6146;48.128;11.476;2023-04-26T10:09:39;4.53;;;4.00;;
12165;SDS011;6146;48.128;11.476;2023-04-26T10:12:05;5.17;;;4.07;;
12165;SDS011;6146;48.128;11.476;2023-04-26T10:14:33;5.40;;;4.13;;
12165;SDS011;6146;48.128;11.476;2023-04-26T10:16:59;6.37;;;3.27;;
12165;SDS011;6146;48.128;11.476;2023-04-26T10:19:27;5.00;;;3.10;;
12165;SDS011;6146;48.128;11.476;2023-04-26T10:21:53;4.30;;;3.10;;
12165;SDS011;6146;48.128;11.476;2023-04-26T10:24:28;3.80;;;3.17;;
12165;SDS011;6146;48.128;11.476;2023-04-26T10:26:54;5.03;;;2.97;;
12165;SDS011;6146;48.128;11.476;2023-04-26T10:29:24;3.80;;;2.93;;
12165;SDS011;6146;48.128;11.476;2023-04-26T10:34:26;3.77;;;2.93;;
12165;SDS011;6146;48.128;11.476;2023-04-26T10:37:10;4.37;;;3.00;;
12165;SDS011;6146;48.128;11.476;2023-04-26T10:39:41;2.83;;;2.57;;
12165;SDS011;6146;48.128;11.476;2023-04-26T10:47:24;4.50;;;3.10;;
12165;SDS011;6146;48.128;11.476;2023-04-26T10:50:01;4.17;;;2.80;;
12165;SDS011;6146;48.128;11.476;2023-04-26T10:52:32;4.23;;;2.77;;
12165;SDS011;6146;48.128;11.476;2023-04-26T10:54:58;3.83;;;2.33;;
12165;SDS011;6146;48.128;11.476;2023-04-26T11:02:45;3.53;;;2.67;;
12165;SDS011;6146;48.128;11.476;2023-04-26T11:05:37;4.63;;;2.43;;
12165;SDS011;6146;48.128;11.476;2023-04-26T11:08:15;3.23;;;2.30;;
12165;SDS011;6146;48.128;11.476;2023-04-26T11:10:44;4.30;;;3.10;;
12165;SDS011;6146;48.128;11.476;2023-04-26T11:13:15;3.23;;;2.30;;
12165;SDS011;6146;48.128;11.476;2023-04-26T11:15:41;3.63;;;2.47;;
12165;SDS011;6146;48.128;11.476;2023-04-26T11:18:07;4.50;;;2.50;;
12165;SDS011;6146;48.128;11.476;2023-04-26T11:20:33;6.97;;;5.33;;
12165;SDS011;6146;48.128;11.476;2023-04-26T11:22:58;3.40;;;2.63;;
12165;SDS011;6146;48.128;11.476;2023-04-26T11:25:25;3.23;;;2.40;;
12165;SDS011;6146;48.128;11.476;2023-04-26T11:27:55;4.23;;;3.10;;
12165;SDS011;6146;48.128;11.476;2023-04-26T11:30:22;3.80;;;3.23;;
12165;SDS011;6146;48.128;11.476;2023-04-26T11:32:48;3.27;;;2.80;;
12165;SDS011;6146;48.128;11.476;2023-04-26T11:35:14;4.30;;;3.23;;
12165;SDS011;6146;48.128;11.476;2023-04-26T11:37:39;4.40;;;3.37;;
12165;SDS011;6146;48.128;11.476;2023-04-26T11:40:05;5.63;;;3.90;;
12165;SDS011;6146;48.128;11.476;2023-04-26T11:42:35;4.50;;;3.00;;
12165;SDS011;6146;48.128;11.476;2023-04-26T11:45:00;4.47;;;3.20;;
12165;SDS011;6146;48.128;11.476;2023-04-26T11:47:30;4.07;;;2.60;;
12165;SDS011;6146;48.128;11.476;2023-04-26T11:49:57;4.57;;;2.83;;
12165;SDS011;6146;48.128;11.476;2023-04-26T11:52:23;5.37;;;2.80;;
12165;SDS011;6146;48.128;11.476;2023-04-26T11:54:48;3.43;;;2.80;;
12165;SDS011;6146;48.128;11.476;2023-04-26T11:57:16;4.97;;;3.20;;
12165;SDS011;6146;48.128;11.476;2023-04-26T11:59:42;3.33;;;2.60;;
12165;SDS011;6146;48.128;11.476;2023-04-26T12:02:08;4.00;;;2.87;;
12165;SDS011;6146;48.128;11.476;2023-04-26T12:04:34;4.80;;;2.90;;
12165;SDS011;6146;48.128;11.476;2023-04-26T12:07:02;3.50;;;2.50;;
12165;SDS011;6146;48.128;11.476;2023-04-26T12:09:29;4.13;;;2.30;;
12165;SDS011;6146;48.128;11.476;2023-04-26T12:11:56;3.37;;;2.40;;
12165;SDS011;6146;48.128;11.476;2023-04-26T12:14:32;3.03;;;2.70;;
12165;SDS011;6146;48.128;11.476;2023-04-26T12:16:59;3.43;;;2.70;;
12165;SDS011;6146;48.128;11.476;2023-04-26T12:19:25;5.57;;;2.90;;
12165;SDS011;6146;48.128;11.476;2023-04-26T12:21:51;4.80;;;3.40;;
12165;SDS011;6146;48.128;11.476;2023-04-26T12:24:20;5.97;;;3.77;;
12165;SDS011;6146;48.128;11.476;2023-04-26T12:26:46;4.73;;;3.27;;
12165;SDS011;6146;48.128;11.476;2023-04-26T12:29:12;3.90;;;2.93;;
12165;SDS011;6146;48.128;11.476;2023-04-26T12:31:38;3.37;;;2.93;;
12165;SDS011;6146;48.128;11.476;2023-04-26T12:34:04;3.43;;;3.03;;
12165;SDS011;6146;48.128;11.476;2023-04-26T12:36:29;4.23;;;3.60;;
12165;SDS011;6146;48.128;11.476;2023-04-26T12:38:55;6.17;;;3.80;;
12165;SDS011;6146;48.128;11.476;2023-04-26T12:41:22;6.77;;;4.10;;
12165;SDS011;6146;48.128;11.476;2023-04-26T12:43:48;4.77;;;3.60;;
12165;SDS011;6146;48.128;11.476;2023-04-26T12:46:14;5.00;;;4.07;;
12165;SDS011;6146;48.128;11.476;2023-04-26T12:48:39;4.37;;;3.77;;
12165;SDS011;6146;48.128;11.476;2023-04-26T12:51:05;4.73;;;3.80;;
12165;SDS011;6146;48.128;11.476;2023-04-26T12:53:30;5.50;;;3.80;;
12165;SDS011;6146;48.128;11.476;2023-04-26T12:55:56;5.67;;;3.77;;
12165;SDS011;6146;48.128;11.476;2023-04-26T12:58:22;4.23;;;3.83;;
12165;SDS011;6146;48.128;11.476;2023-04-26T13:00:48;4.53;;;3.83;;
12165;SDS011;6146;48.128;11.476;2023-04-26T13:03:15;4.40;;;3.60;;
12165;SDS011;6146;48.128;11.476;2023-04-26T13:05:41;6.57;;;3.60;;
12165;SDS011;6146;48.128;11.476;2023-04-26T13:08:07;5.00;;;3.60;;
12165;SDS011;6146;48.128;11.476;2023-04-26T13:10:32;5.13;;;3.43;;
12165;SDS011;6146;48.128;11.476;2023-04-26T13:12:58;4.93;;;3.20;;
12165;SDS011;6146;48.128;11.476;2023-04-26T13:15:24;4.53;;;3.10;;
12165;SDS011;6146;48.128;11.476;2023-04-26T13:17:50;4.10;;;2.90;;
12165;SDS011;6146;48.128;11.476;2023-04-26T13:20:17;3.07;;;2.77;;
12165;SDS011;6146;48.128;11.476;2023-04-26T13:22:42;4.00;;;3.37;;
12165;SDS011;6146;48.128;11.476;2023-04-26T13:25:08;3.87;;;2.77;;
12165;SDS011;6146;48.128;11.476;2023-04-26T13:27:37;6.67;;;2.90;;
12165;SDS011;6146;48.128;11.476;2023-04-26T13:30:03;4.13;;;3.30;;
12165;SDS011;6146;48.128;11.476;2023-04-26T13:32:29;4.10;;;3.10;;
12165;SDS011;6146;48.128;11.476;2023-04-26T13:34:55;9.53;;;5.57;;
12165;SDS011;6146;48.128;11.476;2023-04-26T13:37:21;6.87;;;3.33;;
12165;SDS011;6146;48.128;11.476;2023-04-26T13:39:47;6.10;;;3.00;;
12165;SDS011;6146;48.128;11.476;2023-04-26T13:42:13;4.27;;;3.00;;
12165;SDS011;6146;48.128;11.476;2023-04-26T13:44:40;3.20;;;2.90;;
12165;SDS011;6146;48.128;11.476;2023-04-26T13:47:05;4.53;;;2.77;;
12165;SDS011;6146;48.128;11.476;2023-04-26T13:49:31;4.67;;;3.20;;
12165;SDS011;6146;48.128;11.476;2023-04-26T13:51:57;4.33;;;3.10;;
12165;SDS011;6146;48.128;11.476;2023-04-26T13:54:22;3.67;;;3.07;;
12165;SDS011;6146;48.128;11.476;2023-04-26T13:56:50;3.80;;;3.10;;
12165;SDS011;6146;48.128;11.476;2023-04-26T13:59:16;4.13;;;3.20;;
12165;SDS011;6146;48.128;11.476;2023-04-26T14:01:42;3.47;;;2.67;;
12165;SDS011;6146;48.128;11.476;2023-04-26T14:04:08;2.67;;;2.47;;
12165;SDS011;6146;48.128;11.476;2023-04-26T14:06:34;4.73;;;2.87;;
12165;SDS011;6146;48.128;11.476;2023-04-26T14:09:00;2.90;;;2.63;;
12165;SDS011;6146;48.128;11.476;2023-04-26T14:11:26;5.33;;;2.60;;
12165;SDS011;6146;48.128;11.476;2023-04-26T14:13:52;3.53;;;2.87;;
12165;SDS011;6146;48.128;11.476;2023-04-26T14:16:21;2.77;;;2.40;;
12165;SDS011;6146;48.128;11.476;2023-04-26T14:18:47;2.87;;;2.20;;
12165;SDS011;6146;48.128;11.476;2023-04-26T14:21:13;3.33;;;2.50;;
12165;SDS011;6146;48.128;11.476;2023-04-26T14:23:39;3.63;;;2.53;;
12165;SDS011;6146;48.128;11.476;2023-04-26T14:26:04;3.50;;;2.67;;
12165;SDS011;6146;48.128;11.476;2023-04-26T14:28:30;2.70;;;2.30;;
12165;SDS011;6146;48.128;11.476;2023-04-26T14:30:56;3.77;;;2.60;;
12165;SDS011;6146;48.128;11.476;2023-04-26T14:33:21;5.00;;;2.90;;
12165;SDS011;6146;48.128;11.476;2023-04-26T14:35:47;4.77;;;2.60;;
12165;SDS011;6146;48.128;11.476;2023-04-26T14:38:12;4.13;;;2.50;;
12165;SDS011;6146;48.128;11.476;2023-04-26T14:40:38;3.97;;;2.60;;
12165;SDS011;6146;48.128;11.476;2023-04-26T14:43:04;3.50;;;2.83;;
12165;SDS011;6146;48.128;11.476;2023-04-26T14:45:30;4.03;;;3.20;;
12165;SDS011;6146;48.128;11.476;2023-04-26T14:48:01;3.50;;;3.00;;
12165;SDS011;6146;48.128;11.476;2023-04-26T14:50:27;3.77;;;3.17;;
12165;SDS011;6146;48.128;11.476;2023-04-26T14:52:53;4.23;;;3.60;;
12165;SDS011;6146;48.128;11.476;2023-04-26T14:55:19;7.37;;;3.73;;
12165;SDS011;6146;48.128;11.476;2023-04-26T14:57:46;4.13;;;3.20;;